Seaexpressii — HO4619 — position and weather

sailwx.info

Track history (hours):
 
Tides and Currents Weather Stations Pressure Air Temp Water Temp Dewpoint Dewpoint Depression Visibility Wind Speed Wind Dir Waves Ship Positions

Seaexpressii

Last reported at 2017-Aug-22 09:00 UTC. Time now 2017-Aug-22 09:16 UTC.
Position N 26°04' W 080°08'.

Length 37 m; draft 2.2 m.

Type: Ship (hazmat cat C). MMSI: 356449000.

Date/timePositionNaut miles runAvg speedWind from/ knotsBaromVisibWave heightAir tempDewpointWater temp
2017-Aug-22 09:00N 26°04' W 080°08'0 0.0
2017-Aug-22 08:30N 26°04' W 080°08'0 0.0
2017-Aug-22 08:00N 26°04' W 080°08'0 0.0
2017-Aug-22 07:30N 26°04' W 080°08'0 0.0
2017-Aug-22 07:00N 26°04' W 080°08'0 0.0
2017-Aug-22 06:30N 26°04' W 080°08'0 0.0
2017-Aug-22 06:00N 26°04' W 080°08'0 0.0
2017-Aug-22 05:30N 26°04' W 080°08'0 0.0
2017-Aug-22 05:00N 26°04' W 080°08'0 0.0
2017-Aug-22 04:30N 26°04' W 080°08'0 0.0
2017-Aug-22 04:00N 26°04' W 080°08'0 0.0
2017-Aug-22 03:30N 26°04' W 080°08'0 0.0
2017-Aug-22 03:00N 26°04' W 080°08'0 0.0
2017-Aug-22 02:30N 26°04' W 080°08'0 0.0
2017-Aug-22 02:00N 26°04' W 080°08'0 0.0
2017-Aug-22 01:30N 26°04' W 080°08'0 0.0
2017-Aug-22 01:00N 26°04' W 080°08'0 0.0
2017-Aug-22 00:30N 26°04' W 080°08'0 0.0
2017-Aug-22 00:00N 26°04' W 080°08'0 0.0
2017-Aug-21 23:30N 26°04' W 080°08'0 0.0
2017-Aug-21 23:00N 26°04' W 080°08'0 0.0
2017-Aug-21 22:30N 26°04' W 080°08'0 0.0
2017-Aug-21 22:00N 26°04' W 080°08'0 0.0
2017-Aug-21 21:30N 26°04' W 080°08'0 0.0
2017-Aug-21 21:00N 26°04' W 080°08'0 0.0
2017-Aug-21 20:31N 26°04' W 080°08'0 0.0
2017-Aug-21 20:00N 26°04' W 080°08'0 0.0
2017-Aug-21 19:30N 26°04' W 080°08'0 0.0
2017-Aug-21 19:00N 26°04' W 080°08'0 0.0
2017-Aug-21 18:30N 26°04' W 080°08'0 0.0
2017-Aug-21 18:00N 26°04' W 080°08'0 0.0
2017-Aug-21 17:30N 26°04' W 080°08'1 2.1
2017-Aug-21 17:00N 26°04' W 080°07'3 5.6
2017-Aug-21 16:30N 26°05' W 080°04'510.5
2017-Aug-21 16:00N 26°03' W 079°58'510.8
2017-Aug-21 15:30N 26°02' W 079°53'510.8
2017-Aug-21 15:00N 26°00' W 079°47'510.8
2017-Aug-21 14:30N 25°59' W 079°41'23 0.6
2017-Aug-19 23:25N 26°22' W 079°46'512.3
2017-Aug-19 23:00N 26°18' W 079°50'612.1
2017-Aug-19 22:30N 26°14' W 079°56'612.1
2017-Aug-19 22:00N 26°10' W 080°00'511.0
2017-Aug-19 21:30N 26°06' W 080°05'3 5.3
2017-Aug-19 21:00N 26°04' W 080°07'1 2.2
2017-Aug-19 20:30N 26°04' W 080°08'0 0.0
2017-Aug-19 20:00N 26°04' W 080°08'0 0.0
2017-Aug-19 19:30N 26°04' W 080°08'0 0.0
2017-Aug-19 19:00N 26°04' W 080°08'0 0.0
2017-Aug-19 18:30N 26°04' W 080°08'0 0.0
2017-Aug-19 18:00N 26°04' W 080°08'0 0.0
2017-Aug-19 17:30N 26°04' W 080°08'0 0.3
2017-Aug-19 17:00N 26°04' W 080°08'2 4.3
2017-Aug-19 16:31N 26°06' W 080°07'1 2.6
2017-Aug-19 16:00N 26°05' W 080°05'4 8.9
2017-Aug-19 15:30N 26°04' W 080°01'611.3
2017-Aug-19 15:00N 26°02' W 079°55'1111.0
2017-Aug-19 14:00N 25°59' W 079°43'15 0.3
2017-Aug-17 17:37N 26°07' W 079°29'110.2
2017-Aug-17 17:30N 26°07' W 079°30'510.2
2017-Aug-17 17:00N 26°06' W 079°36'510.0
2017-Aug-17 16:30N 26°06' W 079°41'5 9.8
2017-Aug-17 16:00N 26°05' W 079°47'5 9.5
2017-Aug-17 15:30N 26°05' W 079°52'5 9.6
2017-Aug-17 15:00N 26°05' W 079°57'5 9.7
2017-Aug-17 14:30N 26°06' W 080°03'4 8.0
2017-Aug-17 14:00N 26°05' W 080°07'1 2.5
2017-Aug-17 13:31N 26°04' W 080°08'0 0.0
2017-Aug-17 13:00N 26°04' W 080°08'0 0.0
2017-Aug-17 12:30N 26°04' W 080°08'0 0.0
2017-Aug-17 12:00N 26°04' W 080°08'0 0.0
2017-Aug-17 11:30N 26°04' W 080°08'0 0.0
2017-Aug-17 11:00N 26°04' W 080°08'0 0.0
2017-Aug-17 10:31N 26°04' W 080°08'0 0.0
2017-Aug-17 10:00N 26°04' W 080°08'0 0.0
2017-Aug-17 09:30N 26°04' W 080°08'0 0.0
2017-Aug-17 09:00N 26°04' W 080°08'0 0.0
2017-Aug-17 08:31N 26°04' W 080°08'0 0.0
2017-Aug-17 08:00N 26°04' W 080°08'0 0.0
2017-Aug-17 07:30N 26°04' W 080°08'0 0.0
2017-Aug-17 07:00N 26°04' W 080°08'0 0.0
2017-Aug-17 06:30N 26°04' W 080°08'0 0.0
2017-Aug-17 06:00N 26°04' W 080°08'0 0.0
2017-Aug-17 05:30N 26°04' W 080°08'0 0.0
2017-Aug-17 05:00N 26°04' W 080°08'0 0.0
2017-Aug-17 04:30N 26°04' W 080°08'0 0.0
2017-Aug-17 04:00N 26°04' W 080°08'0 0.0
2017-Aug-17 03:30N 26°04' W 080°08'0 0.0
2017-Aug-17 03:00N 26°04' W 080°08'0 0.0
2017-Aug-17 02:31N 26°04' W 080°08'0 0.0
2017-Aug-17 02:00N 26°04' W 080°08'0 0.0
2017-Aug-17 01:30N 26°04' W 080°08'0 0.0
2017-Aug-17 01:00N 26°04' W 080°08'0 0.0
2017-Aug-17 00:30N 26°04' W 080°08'0 0.0
2017-Aug-17 00:00N 26°04' W 080°08'0 0.0
2017-Aug-16 23:30N 26°04' W 080°08'0 0.0
2017-Aug-16 23:00N 26°04' W 080°08'0 0.0
2017-Aug-16 22:30N 26°04' W 080°08'0 0.3
2017-Aug-16 22:00N 26°04' W 080°08'0 0.4
2017-Aug-16 21:30N 26°04' W 080°08'0 0.0
2017-Aug-16 21:01N 26°04' W 080°08'0 0.0
2017-Aug-16 20:30N 26°04' W 080°08'0 0.0
2017-Aug-16 20:00N 26°04' W 080°08'0 0.0
2017-Aug-16 19:30N 26°04' W 080°08'0 0.0
2017-Aug-16 19:01N 26°04' W 080°08'0 0.1
2017-Aug-16 18:30N 26°04' W 080°08'1 1.8
2017-Aug-16 18:00N 26°04' W 080°07'3 5.4
2017-Aug-16 17:30N 26°05' W 080°04'510.3
2017-Aug-16 17:01N 26°05' W 079°59'5 9.5
2017-Aug-16 16:30N 26°05' W 079°53'5 9.6
2017-Aug-16 16:00N 26°05' W 079°48'510.0
2017-Aug-16 15:30N 26°05' W 079°42'510.0
2017-Aug-16 15:00N 26°05' W 079°37'6 9.9
2017-Aug-16 14:24N 26°05' W 079°30'11 1.0
2017-Aug-16 02:57N 26°16' W 079°30'510.7
2017-Aug-16 02:30N 26°15' W 079°35'510.9
2017-Aug-16 02:00N 26°13' W 079°41'510.9
2017-Aug-16 01:30N 26°11' W 079°46'611.2
2017-Aug-16 01:00N 26°10' W 079°52'611.1
2017-Aug-16 00:30N 26°08' W 079°58'511.0
2017-Aug-16 00:00N 26°06' W 080°04'3 6.9
2017-Aug-15 23:30N 26°04' W 080°07'1 1.8
2017-Aug-15 23:00N 26°04' W 080°08'0 0.0
2017-Aug-15 22:30N 26°04' W 080°08'0 0.0
2017-Aug-15 22:00N 26°04' W 080°08'0 0.0
2017-Aug-15 21:30N 26°04' W 080°08'0 0.0
2017-Aug-15 21:00N 26°04' W 080°08'0 0.0
2017-Aug-15 20:30N 26°04' W 080°08'0 0.0
2017-Aug-15 20:01N 26°04' W 080°08'0 0.0
2017-Aug-15 19:30N 26°04' W 080°08'0 0.0
2017-Aug-15 19:00N 26°04' W 080°08'0 0.0
2017-Aug-15 18:30N 26°04' W 080°08'1 1.7
2017-Aug-15 18:01N 26°04' W 080°07'3 6.6
2017-Aug-15 17:30N 26°05' W 080°04'510.1
2017-Aug-15 17:01N 26°05' W 079°58'5 9.4
2017-Aug-15 16:30N 26°05' W 079°53'5 9.4
2017-Aug-15 16:00N 26°05' W 079°48'5 9.5
2017-Aug-15 15:30N 26°05' W 079°42'5 9.6
2017-Aug-15 15:00N 26°05' W 079°37'6 9.7
2017-Aug-15 14:20N 26°05' W 079°30'11 1.0
2017-Aug-15 03:13N 26°16' W 079°30'211.3
2017-Aug-15 03:00N 26°15' W 079°33'611.2
2017-Aug-15 02:30N 26°14' W 079°39'611.2
2017-Aug-15 02:01N 26°12' W 079°45'611.3
2017-Aug-15 01:30N 26°10' W 079°51'611.6
2017-Aug-15 01:00N 26°08' W 079°57'511.0
2017-Aug-15 00:31N 26°07' W 080°02'4 8.7
2017-Aug-15 00:01N 26°05' W 080°07'1 3.0
2017-Aug-14 23:30N 26°04' W 080°08'0 0.2
2017-Aug-14 23:00N 26°04' W 080°08'0 0.0
2017-Aug-14 22:30N 26°04' W 080°08'0 0.0
2017-Aug-14 22:00N 26°04' W 080°08'0 0.0
2017-Aug-14 21:30N 26°04' W 080°08'0 0.0
2017-Aug-14 21:01N 26°04' W 080°08'0 0.0
2017-Aug-14 20:31N 26°04' W 080°08'0 0.0
2017-Aug-14 20:00N 26°04' W 080°08'0 0.0
2017-Aug-14 19:30N 26°04' W 080°08'0 0.0
2017-Aug-14 19:01N 26°04' W 080°08'0 0.0
2017-Aug-14 18:30N 26°04' W 080°08'0 0.0
2017-Aug-14 18:00N 26°04' W 080°08'0 0.0
2017-Aug-14 17:30N 26°04' W 080°08'0 0.0
2017-Aug-14 17:00N 26°04' W 080°08'0 0.0
2017-Aug-14 16:30N 26°04' W 080°08'0 0.0
2017-Aug-14 16:01N 26°04' W 080°08'0 0.0
2017-Aug-14 15:30N 26°04' W 080°08'0 0.0
2017-Aug-14 15:00N 26°04' W 080°08'0 0.0
2017-Aug-14 14:31N 26°04' W 080°08'0 0.0
2017-Aug-14 14:00N 26°04' W 080°08'0 0.0
2017-Aug-14 13:31N 26°04' W 080°08'0 0.0
2017-Aug-14 13:00N 26°04' W 080°08'0 0.0
2017-Aug-14 12:30N 26°04' W 080°08'0 0.0
2017-Aug-14 12:00N 26°04' W 080°08'0 0.0
2017-Aug-14 11:30N 26°04' W 080°08'0 0.0
2017-Aug-14 11:00N 26°04' W 080°08'0 0.0
2017-Aug-14 10:31N 26°04' W 080°08'0 0.0
2017-Aug-14 10:00N 26°04' W 080°08'0 0.0
2017-Aug-14 09:30N 26°04' W 080°08'0 0.0
2017-Aug-14 09:00N 26°04' W 080°08'0 0.0
2017-Aug-14 08:30N 26°04' W 080°08'0 0.0
2017-Aug-14 08:00N 26°04' W 080°08'0 0.0
2017-Aug-14 07:30N 26°04' W 080°08'0 0.0
2017-Aug-14 07:00N 26°04' W 080°08'0 0.0
2017-Aug-14 06:30N 26°04' W 080°08'0 0.0
2017-Aug-14 06:00N 26°04' W 080°08'0 0.0
2017-Aug-14 05:30N 26°04' W 080°08'0 0.0
2017-Aug-14 05:00N 26°04' W 080°08'0 0.0
2017-Aug-14 04:30N 26°04' W 080°08'0 0.0
2017-Aug-14 04:00N 26°04' W 080°08'0 0.0
2017-Aug-14 03:30N 26°04' W 080°08'0 0.0
2017-Aug-14 03:00N 26°04' W 080°08'0 0.0
2017-Aug-14 02:30N 26°04' W 080°08'0 0.0
2017-Aug-14 02:00N 26°04' W 080°08'0 0.0
2017-Aug-14 01:30N 26°04' W 080°08'0 0.0
2017-Aug-14 01:00N 26°04' W 080°08'0 0.0
2017-Aug-14 00:31N 26°04' W 080°08'0 0.0
2017-Aug-14 00:01N 26°04' W 080°08'0 0.0
2017-Aug-13 23:30N 26°04' W 080°08'0 0.0
2017-Aug-13 23:00N 26°04' W 080°08'0 0.0
2017-Aug-13 22:30N 26°04' W 080°08'0 0.0
2017-Aug-13 22:01N 26°04' W 080°08'0 0.0
2017-Aug-13 21:30N 26°04' W 080°08'0 0.0
2017-Aug-13 21:00N 26°04' W 080°08'0 0.0
2017-Aug-13 20:30N 26°04' W 080°08'0 0.0
2017-Aug-13 20:00N 26°04' W 080°08'0 0.0
2017-Aug-13 19:30N 26°04' W 080°08'0 0.0
2017-Aug-13 19:00N 26°04' W 080°08'0 0.0
2017-Aug-13 18:30N 26°04' W 080°08'0 0.0
2017-Aug-13 18:00N 26°04' W 080°08'0 0.0
2017-Aug-13 17:30N 26°04' W 080°08'0 0.0
2017-Aug-13 17:00N 26°04' W 080°08'0 0.0
2017-Aug-13 16:30N 26°04' W 080°08'0 0.0
2017-Aug-13 16:00N 26°04' W 080°08'0 0.0
2017-Aug-13 15:30N 26°04' W 080°08'0 0.0
2017-Aug-13 15:00N 26°04' W 080°08'0 0.0
2017-Aug-13 14:30N 26°04' W 080°08'0 0.0
2017-Aug-13 14:00N 26°04' W 080°08'0 0.0
2017-Aug-13 13:31N 26°04' W 080°08'0 0.0
2017-Aug-13 13:00N 26°04' W 080°08'0 0.0
2017-Aug-13 12:30N 26°04' W 080°08'0 0.0
2017-Aug-13 12:00N 26°04' W 080°08'0 0.0
2017-Aug-13 11:30N 26°04' W 080°08'0 0.0
2017-Aug-13 11:00N 26°04' W 080°08'1 1.5
2017-Aug-13 10:30N 26°04' W 080°07'2 5.0
2017-Aug-13 10:01N 26°05' W 080°05'4 8.6
2017-Aug-13 09:31N 26°06' W 080°00'510.7
2017-Aug-13 09:00N 26°04' W 079°54'511.0
2017-Aug-13 08:31N 26°01' W 079°49'610.8
2017-Aug-13 07:59N 25°59' W 079°44'510.2
2017-Aug-13 07:30N 25°57' W 079°38'  
Track history (hours):
 
Tides and Currents Weather Stations Pressure Air Temp Water Temp Dewpoint Dewpoint Depression Visibility Wind Speed Wind Dir Waves Ship Positions

Seaexpressii

Last reported at 2017-Aug-22 09:00 UTC. Time now 2017-Aug-22 09:16 UTC.
Position N 26°04' W 080°08'.

Length 37 m; draft 2.2 m.

Type: Ship (hazmat cat C). MMSI: 356449000.

Date/timePositionNaut miles runAvg speedWind from/ knotsBaromVisibWave heightAir tempDewpointWater temp
2017-Aug-22 09:00N 26°04' W 080°08'0 0.0
2017-Aug-22 08:30N 26°04' W 080°08'0 0.0
2017-Aug-22 08:00N 26°04' W 080°08'0 0.0
2017-Aug-22 07:30N 26°04' W 080°08'0 0.0
2017-Aug-22 07:00N 26°04' W 080°08'0 0.0
2017-Aug-22 06:30N 26°04' W 080°08'0 0.0
2017-Aug-22 06:00N 26°04' W 080°08'0 0.0
2017-Aug-22 05:30N 26°04' W 080°08'0 0.0
2017-Aug-22 05:00N 26°04' W 080°08'0 0.0
2017-Aug-22 04:30N 26°04' W 080°08'0 0.0
2017-Aug-22 04:00N 26°04' W 080°08'0 0.0
2017-Aug-22 03:30N 26°04' W 080°08'0 0.0
2017-Aug-22 03:00N 26°04' W 080°08'0 0.0
2017-Aug-22 02:30N 26°04' W 080°08'0 0.0
2017-Aug-22 02:00N 26°04' W 080°08'0 0.0
2017-Aug-22 01:30N 26°04' W 080°08'0 0.0
2017-Aug-22 01:00N 26°04' W 080°08'0 0.0
2017-Aug-22 00:30N 26°04' W 080°08'0 0.0
2017-Aug-22 00:00N 26°04' W 080°08'0 0.0
2017-Aug-21 23:30N 26°04' W 080°08'0 0.0
2017-Aug-21 23:00N 26°04' W 080°08'0 0.0
2017-Aug-21 22:30N 26°04' W 080°08'0 0.0
2017-Aug-21 22:00N 26°04' W 080°08'0 0.0
2017-Aug-21 21:30N 26°04' W 080°08'0 0.0
2017-Aug-21 21:00N 26°04' W 080°08'0 0.0
2017-Aug-21 20:31N 26°04' W 080°08'0 0.0
2017-Aug-21 20:00N 26°04' W 080°08'0 0.0
2017-Aug-21 19:30N 26°04' W 080°08'0 0.0
2017-Aug-21 19:00N 26°04' W 080°08'0 0.0
2017-Aug-21 18:30N 26°04' W 080°08'0 0.0
2017-Aug-21 18:00N 26°04' W 080°08'0 0.0
2017-Aug-21 17:30N 26°04' W 080°08'1 2.1
2017-Aug-21 17:00N 26°04' W 080°07'3 5.6
2017-Aug-21 16:30N 26°05' W 080°04'510.5
2017-Aug-21 16:00N 26°03' W 079°58'510.8
2017-Aug-21 15:30N 26°02' W 079°53'510.8
2017-Aug-21 15:00N 26°00' W 079°47'510.8
2017-Aug-21 14:30N 25°59' W 079°41'23 0.6
2017-Aug-19 23:25N 26°22' W 079°46'512.3
2017-Aug-19 23:00N 26°18' W 079°50'612.1
2017-Aug-19 22:30N 26°14' W 079°56'612.1
2017-Aug-19 22:00N 26°10' W 080°00'511.0
2017-Aug-19 21:30N 26°06' W 080°05'3 5.3
2017-Aug-19 21:00N 26°04' W 080°07'1 2.2
2017-Aug-19 20:30N 26°04' W 080°08'0 0.0
2017-Aug-19 20:00N 26°04' W 080°08'0 0.0
2017-Aug-19 19:30N 26°04' W 080°08'0 0.0
2017-Aug-19 19:00N 26°04' W 080°08'0 0.0
2017-Aug-19 18:30N 26°04' W 080°08'0 0.0
2017-Aug-19 18:00N 26°04' W 080°08'0 0.0
2017-Aug-19 17:30N 26°04' W 080°08'0 0.3
2017-Aug-19 17:00N 26°04' W 080°08'2 4.3
2017-Aug-19 16:31N 26°06' W 080°07'1 2.6
2017-Aug-19 16:00N 26°05' W 080°05'4 8.9
2017-Aug-19 15:30N 26°04' W 080°01'611.3
2017-Aug-19 15:00N 26°02' W 079°55'1111.0
2017-Aug-19 14:00N 25°59' W 079°43'15 0.3
2017-Aug-17 17:37N 26°07' W 079°29'110.2
2017-Aug-17 17:30N 26°07' W 079°30'510.2
2017-Aug-17 17:00N 26°06' W 079°36'510.0
2017-Aug-17 16:30N 26°06' W 079°41'5 9.8
2017-Aug-17 16:00N 26°05' W 079°47'5 9.5
2017-Aug-17 15:30N 26°05' W 079°52'5 9.6
2017-Aug-17 15:00N 26°05' W 079°57'5 9.7
2017-Aug-17 14:30N 26°06' W 080°03'4 8.0
2017-Aug-17 14:00N 26°05' W 080°07'1 2.5
2017-Aug-17 13:31N 26°04' W 080°08'0 0.0
2017-Aug-17 13:00N 26°04' W 080°08'0 0.0
2017-Aug-17 12:30N 26°04' W 080°08'0 0.0
2017-Aug-17 12:00N 26°04' W 080°08'0 0.0
2017-Aug-17 11:30N 26°04' W 080°08'0 0.0
2017-Aug-17 11:00N 26°04' W 080°08'0 0.0
2017-Aug-17 10:31N 26°04' W 080°08'0 0.0
2017-Aug-17 10:00N 26°04' W 080°08'0 0.0
2017-Aug-17 09:30N 26°04' W 080°08'0 0.0
2017-Aug-17 09:00N 26°04' W 080°08'0 0.0
2017-Aug-17 08:31N 26°04' W 080°08'0 0.0
2017-Aug-17 08:00N 26°04' W 080°08'0 0.0
2017-Aug-17 07:30N 26°04' W 080°08'0 0.0
2017-Aug-17 07:00N 26°04' W 080°08'0 0.0
2017-Aug-17 06:30N 26°04' W 080°08'0 0.0
2017-Aug-17 06:00N 26°04' W 080°08'0 0.0
2017-Aug-17 05:30N 26°04' W 080°08'0 0.0
2017-Aug-17 05:00N 26°04' W 080°08'0 0.0
2017-Aug-17 04:30N 26°04' W 080°08'0 0.0
2017-Aug-17 04:00N 26°04' W 080°08'0 0.0
2017-Aug-17 03:30N 26°04' W 080°08'0 0.0
2017-Aug-17 03:00N 26°04' W 080°08'0 0.0
2017-Aug-17 02:31N 26°04' W 080°08'0 0.0
2017-Aug-17 02:00N 26°04' W 080°08'0 0.0
2017-Aug-17 01:30N 26°04' W 080°08'0 0.0
2017-Aug-17 01:00N 26°04' W 080°08'0 0.0
2017-Aug-17 00:30N 26°04' W 080°08'0 0.0
2017-Aug-17 00:00N 26°04' W 080°08'0 0.0
2017-Aug-16 23:30N 26°04' W 080°08'0 0.0
2017-Aug-16 23:00N 26°04' W 080°08'0 0.0
2017-Aug-16 22:30N 26°04' W 080°08'0 0.3
2017-Aug-16 22:00N 26°04' W 080°08'0 0.4
2017-Aug-16 21:30N 26°04' W 080°08'0 0.0
2017-Aug-16 21:01N 26°04' W 080°08'0 0.0
2017-Aug-16 20:30N 26°04' W 080°08'0 0.0
2017-Aug-16 20:00N 26°04' W 080°08'0 0.0
2017-Aug-16 19:30N 26°04' W 080°08'0 0.0
2017-Aug-16 19:01N 26°04' W 080°08'0 0.1
2017-Aug-16 18:30N 26°04' W 080°08'1 1.8
2017-Aug-16 18:00N 26°04' W 080°07'3 5.4
2017-Aug-16 17:30N 26°05' W 080°04'510.3
2017-Aug-16 17:01N 26°05' W 079°59'5 9.5
2017-Aug-16 16:30N 26°05' W 079°53'5 9.6
2017-Aug-16 16:00N 26°05' W 079°48'510.0
2017-Aug-16 15:30N 26°05' W 079°42'510.0
2017-Aug-16 15:00N 26°05' W 079°37'6 9.9
2017-Aug-16 14:24N 26°05' W 079°30'11 1.0
2017-Aug-16 02:57N 26°16' W 079°30'510.7
2017-Aug-16 02:30N 26°15' W 079°35'510.9
2017-Aug-16 02:00N 26°13' W 079°41'510.9
2017-Aug-16 01:30N 26°11' W 079°46'611.2
2017-Aug-16 01:00N 26°10' W 079°52'611.1
2017-Aug-16 00:30N 26°08' W 079°58'511.0
2017-Aug-16 00:00N 26°06' W 080°04'3 6.9
2017-Aug-15 23:30N 26°04' W 080°07'1 1.8
2017-Aug-15 23:00N 26°04' W 080°08'0 0.0
2017-Aug-15 22:30N 26°04' W 080°08'0 0.0
2017-Aug-15 22:00N 26°04' W 080°08'0 0.0
2017-Aug-15 21:30N 26°04' W 080°08'0 0.0
2017-Aug-15 21:00N 26°04' W 080°08'0 0.0
2017-Aug-15 20:30N 26°04' W 080°08'0 0.0
2017-Aug-15 20:01N 26°04' W 080°08'0 0.0
2017-Aug-15 19:30N 26°04' W 080°08'0 0.0
2017-Aug-15 19:00N 26°04' W 080°08'0 0.0
2017-Aug-15 18:30N 26°04' W 080°08'1 1.7
2017-Aug-15 18:01N 26°04' W 080°07'3 6.6
2017-Aug-15 17:30N 26°05' W 080°04'510.1
2017-Aug-15 17:01N 26°05' W 079°58'5 9.4
2017-Aug-15 16:30N 26°05' W 079°53'5 9.4
2017-Aug-15 16:00N 26°05' W 079°48'5 9.5
2017-Aug-15 15:30N 26°05' W 079°42'5 9.6
2017-Aug-15 15:00N 26°05' W 079°37'6 9.7
2017-Aug-15 14:20N 26°05' W 079°30'11 1.0
2017-Aug-15 03:13N 26°16' W 079°30'211.3
2017-Aug-15 03:00N 26°15' W 079°33'611.2
2017-Aug-15 02:30N 26°14' W 079°39'611.2
2017-Aug-15 02:01N 26°12' W 079°45'611.3
2017-Aug-15 01:30N 26°10' W 079°51'611.6
2017-Aug-15 01:00N 26°08' W 079°57'511.0
2017-Aug-15 00:31N 26°07' W 080°02'4 8.7
2017-Aug-15 00:01N 26°05' W 080°07'1 3.0
2017-Aug-14 23:30N 26°04' W 080°08'0 0.2
2017-Aug-14 23:00N 26°04' W 080°08'0 0.0
2017-Aug-14 22:30N 26°04' W 080°08'0 0.0
2017-Aug-14 22:00N 26°04' W 080°08'0 0.0
2017-Aug-14 21:30N 26°04' W 080°08'0 0.0
2017-Aug-14 21:01N 26°04' W 080°08'0 0.0
2017-Aug-14 20:31N 26°04' W 080°08'0 0.0
2017-Aug-14 20:00N 26°04' W 080°08'0 0.0
2017-Aug-14 19:30N 26°04' W 080°08'0 0.0
2017-Aug-14 19:01N 26°04' W 080°08'0 0.0
2017-Aug-14 18:30N 26°04' W 080°08'0 0.0
2017-Aug-14 18:00N 26°04' W 080°08'0 0.0
2017-Aug-14 17:30N 26°04' W 080°08'0 0.0
2017-Aug-14 17:00N 26°04' W 080°08'0 0.0
2017-Aug-14 16:30N 26°04' W 080°08'0 0.0
2017-Aug-14 16:01N 26°04' W 080°08'0 0.0
2017-Aug-14 15:30N 26°04' W 080°08'0 0.0
2017-Aug-14 15:00N 26°04' W 080°08'0 0.0
2017-Aug-14 14:31N 26°04' W 080°08'0 0.0
2017-Aug-14 14:00N 26°04' W 080°08'0 0.0
2017-Aug-14 13:31N 26°04' W 080°08'0 0.0
2017-Aug-14 13:00N 26°04' W 080°08'0 0.0
2017-Aug-14 12:30N 26°04' W 080°08'0 0.0
2017-Aug-14 12:00N 26°04' W 080°08'0 0.0
2017-Aug-14 11:30N 26°04' W 080°08'0 0.0
2017-Aug-14 11:00N 26°04' W 080°08'0 0.0
2017-Aug-14 10:31N 26°04' W 080°08'0 0.0
2017-Aug-14 10:00N 26°04' W 080°08'0 0.0
2017-Aug-14 09:30N 26°04' W 080°08'0 0.0
2017-Aug-14 09:00N 26°04' W 080°08'0 0.0
2017-Aug-14 08:30N 26°04' W 080°08'0 0.0
2017-Aug-14 08:00N 26°04' W 080°08'0 0.0
2017-Aug-14 07:30N 26°04' W 080°08'0 0.0
2017-Aug-14 07:00N 26°04' W 080°08'0 0.0
2017-Aug-14 06:30N 26°04' W 080°08'0 0.0
2017-Aug-14 06:00N 26°04' W 080°08'0 0.0
2017-Aug-14 05:30N 26°04' W 080°08'0 0.0
2017-Aug-14 05:00N 26°04' W 080°08'0 0.0
2017-Aug-14 04:30N 26°04' W 080°08'0 0.0
2017-Aug-14 04:00N 26°04' W 080°08'0 0.0
2017-Aug-14 03:30N 26°04' W 080°08'0 0.0
2017-Aug-14 03:00N 26°04' W 080°08'0 0.0
2017-Aug-14 02:30N 26°04' W 080°08'0 0.0
2017-Aug-14 02:00N 26°04' W 080°08'0 0.0
2017-Aug-14 01:30N 26°04' W 080°08'0 0.0
2017-Aug-14 01:00N 26°04' W 080°08'0 0.0
2017-Aug-14 00:31N 26°04' W 080°08'0 0.0
2017-Aug-14 00:01N 26°04' W 080°08'0 0.0
2017-Aug-13 23:30N 26°04' W 080°08'0 0.0
2017-Aug-13 23:00N 26°04' W 080°08'0 0.0
2017-Aug-13 22:30N 26°04' W 080°08'0 0.0
2017-Aug-13 22:01N 26°04' W 080°08'0 0.0
2017-Aug-13 21:30N 26°04' W 080°08'0 0.0
2017-Aug-13 21:00N 26°04' W 080°08'0 0.0
2017-Aug-13 20:30N 26°04' W 080°08'0 0.0
2017-Aug-13 20:00N 26°04' W 080°08'0 0.0
2017-Aug-13 19:30N 26°04' W 080°08'0 0.0
2017-Aug-13 19:00N 26°04' W 080°08'0 0.0
2017-Aug-13 18:30N 26°04' W 080°08'0 0.0
2017-Aug-13 18:00N 26°04' W 080°08'0 0.0
2017-Aug-13 17:30N 26°04' W 080°08'0 0.0
2017-Aug-13 17:00N 26°04' W 080°08'0 0.0
2017-Aug-13 16:30N 26°04' W 080°08'0 0.0
2017-Aug-13 16:00N 26°04' W 080°08'0 0.0
2017-Aug-13 15:30N 26°04' W 080°08'0 0.0
2017-Aug-13 15:00N 26°04' W 080°08'0 0.0
2017-Aug-13 14:30N 26°04' W 080°08'0 0.0
2017-Aug-13 14:00N 26°04' W 080°08'0 0.0
2017-Aug-13 13:31N 26°04' W 080°08'0 0.0
2017-Aug-13 13:00N 26°04' W 080°08'0 0.0
2017-Aug-13 12:30N 26°04' W 080°08'0 0.0
2017-Aug-13 12:00N 26°04' W 080°08'0 0.0
2017-Aug-13 11:30N 26°04' W 080°08'0 0.0
2017-Aug-13 11:00N 26°04' W 080°08'1 1.5
2017-Aug-13 10:30N 26°04' W 080°07'2 5.0
2017-Aug-13 10:01N 26°05' W 080°05'4 8.6
2017-Aug-13 09:31N 26°06' W 080°00'510.7
2017-Aug-13 09:00N 26°04' W 079°54'511.0
2017-Aug-13 08:31N 26°01' W 079°49'610.8
2017-Aug-13 07:59N 25°59' W 079°44'510.2
2017-Aug-13 07:30N 25°57' W 079°38'  

Dump ship's entire track history